Time;durP1;ratioP1;P1;durP2;ratioP2;P2;SDS_P1;SDS_P2;PMS_P1;PMS_P2;Temp;Humidity;BMP_temperature;BMP_pressure;BME280_temperature;BME280_humidity;BME280_pressure;Samples;Min_cycle;Max_cycle;Signal;HPM_P1;HPM_P2
2022/01/06 00:00:35;;;;;;;10.20;2.38;;;;;;;3.51;100.00;101661.81;5037004;28;20487;-71
2022/01/06 00:03:45;;;;;;;10.25;2.67;;;;;;;3.43;100.00;101655.56;5034537;28;20078;-72
2022/01/06 00:06:29;;;;;;;12.55;4.45;;;;;;;3.34;100.00;101659.00;5042798;28;20084;-72
2022/01/06 00:12:46;;;;;;;15.82;2.38;;;;;;;3.22;100.00;101672.06;5045662;28;20538;-72
2022/01/06 00:29:24;;;;;;;20.17;4.25;;;;;;;2.76;100.00;101692.59;5046896;28;20196;-71
2022/01/06 00:32:51;;;;;;;19.35;3.90;;;;;;;2.90;100.00;101683.09;5030632;28;20049;-71
2022/01/06 00:41:25;;;;;;;23.48;3.25;;;;;;;2.96;100.00;101682.28;5036402;28;20068;-77
2022/01/06 00:43:53;;;;;;;12.00;3.08;;;;;;;3.10;100.00;101683.34;5055085;28;20375;-78
2022/01/06 00:46:20;;;;;;;12.40;3.15;;;;;;;3.04;100.00;101685.03;5041484;28;20624;-77
2022/01/06 00:48:48;;;;;;;14.10;2.78;;;;;;;3.07;100.00;101679.81;5046488;28;20067;-78
2022/01/06 00:51:17;;;;;;;10.65;2.35;;;;;;;3.03;100.00;101680.59;5041483;28;20128;-78
2022/01/06 00:53:46;;;;;;;11.43;2.10;;;;;;;2.96;100.00;101688.47;5044207;28;20182;-77
2022/01/06 00:56:13;;;;;;;8.23;2.50;;;;;;;2.95;100.00;101686.69;5036040;28;20136;-77
2022/01/06 00:58:41;;;;;;;20.70;3.53;;;;;;;3.03;100.00;101691.16;5046960;28;20052;-78
2022/01/06 01:01:09;;;;;;;11.85;2.63;;;;;;;2.91;100.00;101684.88;5053300;28;20111;-77
2022/01/06 01:03:37;;;;;;;14.15;3.00;;;;;;;2.97;100.00;101692.84;5052965;28;20052;-77
2022/01/06 01:06:05;;;;;;;12.82;2.45;;;;;;;2.87;100.00;101696.22;5052161;28;20055;-78
2022/01/06 01:08:34;;;;;;;8.30;2.00;;;;;;;2.78;100.00;101701.41;5048751;28;20051;-78
2022/01/06 01:11:02;;;;;;;16.20;2.72;;;;;;;2.71;100.00;101703.06;5047888;28;20053;-76
2022/01/06 01:13:32;;;;;;;10.93;2.78;;;;;;;2.68;100.00;101704.75;5045406;28;20044;-76
2022/01/06 01:16:09;;;;;;;10.77;3.10;;;;;;;2.76;100.00;101700.50;5048695;28;20080;-76
2022/01/06 01:18:39;;;;;;;15.48;2.53;;;;;;;2.73;100.00;101708.34;5051081;28;20067;-76
2022/01/06 01:21:07;;;;;;;14.70;2.50;;;;;;;2.70;100.00;101710.94;5048404;28;20118;-77
2022/01/06 01:23:36;;;;;;;14.57;2.78;;;;;;;2.80;100.00;101715.47;5051996;28;20273;-77
2022/01/06 01:26:04;;;;;;;9.60;2.13;;;;;;;2.73;100.00;101714.50;5051767;28;20095;-78
2022/01/06 01:28:42;;;;;;;16.67;2.88;;;;;;;2.83;100.00;101722.53;5049381;28;20482;-78
2022/01/06 01:31:23;;;;;;;11.05;3.30;;;;;;;2.72;100.00;101717.97;5045594;28;20418;-77
2022/01/06 01:33:52;;;;;;;8.13;2.00;;;;;;;2.69;100.00;101727.59;5047710;28;20048;-77
2022/01/06 01:36:20;;;;;;;8.38;2.00;;;;;;;2.59;100.00;101723.97;5047898;28;20057;-77
2022/01/06 01:38:51;;;;;;;9.77;2.35;;;;;;;2.55;100.00;101727.41;5051047;28;20049;-78
2022/01/06 01:41:22;;;;;;;12.55;2.58;;;;;;;2.47;100.00;101727.31;5050258;28;20053;-77
2022/01/06 01:43:53;;;;;;;8.98;2.15;;;;;;;2.38;100.00;101732.41;5050333;28;20045;-78
2022/01/06 01:46:28;;;;;;;9.65;2.33;;;;;;;2.29;100.00;101725.25;5047966;28;20052;-78
2022/01/06 01:49:14;;;;;;;10.40;1.92;;;;;;;2.21;100.00;101732.13;5050262;28;20056;-78
2022/01/06 01:51:43;;;;;;;12.30;2.30;;;;;;;2.12;100.00;101732.88;5048397;28;20048;-76
2022/01/06 01:54:13;;;;;;;15.93;2.83;;;;;;;2.08;100.00;101738.03;5048606;28;20136;-76
2022/01/06 01:56:42;;;;;;;8.75;2.35;;;;;;;1.99;100.00;101734.41;5050474;28;20048;-76
2022/01/06 01:59:10;;;;;;;5.20;1.80;;;;;;;1.98;100.00;101740.53;5049247;28;20123;-76
2022/01/06 02:01:38;;;;;;;9.02;2.30;;;;;;;2.00;100.00;101744.06;5050758;28;20052;-76
2022/01/06 02:04:06;;;;;;;12.52;2.25;;;;;;;1.94;100.00;101748.34;5049009;28;20047;-76
2022/01/06 02:06:34;;;;;;;6.97;2.33;;;;;;;1.88;100.00;101741.22;5048239;28;20407;-76
2022/01/06 02:09:02;;;;;;;9.20;2.08;;;;;;;1.86;100.00;101743.84;5046913;28;20135;-76
2022/01/06 02:11:31;;;;;;;7.40;1.88;;;;;;;1.78;100.00;101748.06;5053467;28;20076;-76
2022/01/06 02:17:29;;;;;;;6.38;2.03;;;;;;;1.82;100.00;101754.25;5045783;28;20053;-70
2022/01/06 02:20:19;;;;;;;14.50;3.10;;;;;;;1.85;100.00;101756.97;5057483;28;20098;-76
2022/01/06 02:22:49;;;;;;;12.30;2.80;;;;;;;1.86;100.00;101751.72;5042879;28;20059;-76
2022/01/06 02:32:48;;;;;;;5.70;2.58;;;;;;;1.76;100.00;101756.81;5048060;28;20513;-70
2022/01/06 02:42:43;;;;;;;12.88;2.42;;;;;;;1.60;100.00;101764.41;5065385;28;20051;-71
2022/01/06 02:45:12;;;;;;;10.80;2.40;;;;;;;1.53;100.00;101769.50;5070291;28;20567;-77
2022/01/06 02:47:42;;;;;;;10.88;2.70;;;;;;;1.46;100.00;101768.50;5067530;28;20048;-78
2022/01/06 02:50:11;;;;;;;8.98;2.55;;;;;;;1.38;100.00;101772.69;5069799;28;20582;-77
2022/01/06 02:52:39;;;;;;;12.15;2.30;;;;;;;1.38;100.00;101773.59;5067777;28;20102;-77
2022/01/06 02:55:12;;;;;;;11.90;2.20;;;;;;;1.38;100.00;101780.59;5070024;28;20800;-77
2022/01/06 02:58:04;;;;;;;9.68;2.28;;;;;;;1.44;100.00;101778.97;5069308;28;20062;-78
2022/01/06 03:00:35;;;;;;;21.20;2.65;;;;;;;1.48;100.00;101780.84;5072434;28;20478;-78
2022/01/06 03:03:35;;;;;;;8.50;2.35;;;;;;;1.42;100.00;101785.94;5072897;28;20051;-71
2022/01/06 03:09:43;;;;;;;10.38;2.28;;;;;;;1.35;100.00;101785.81;5068691;28;20666;-72
2022/01/06 03:13:14;;;;;;;7.55;1.88;;;;;;;1.25;100.00;101792.59;5053716;28;20048;-70
2022/01/06 03:23:26;;;;;;;11.07;2.17;;;;;;;1.35;100.00;101791.06;5060448;28;20931;-71
2022/01/06 03:26:51;;;;;;;9.00;2.10;;;;;;;1.34;100.00;101784.91;5065232;28;20045;-72
2022/01/06 03:40:23;;;;;;;7.53;2.15;;;;;;;1.11;100.00;101793.19;5047971;28;20129;-74
2022/01/06 03:43:46;;;;;;;9.90;2.40;;;;;;;1.09;100.00;101804.50;5061148;28;20049;-73
2022/01/06 03:46:46;;;;;;;19.17;3.72;;;;;;;1.25;100.00;101821.53;5065871;28;20084;-73
2022/01/06 03:50:21;;;;;;;9.63;2.00;;;;;;;2.25;100.00;101828.78;5066297;28;20079;-73
2022/01/06 03:56:27;;;;;;;12.10;2.42;;;;;;;2.48;100.00;101841.47;5105131;27;20549;-72
2022/01/06 03:58:55;;;;;;;5.10;1.67;;;;;;;2.64;100.00;101847.88;4201860;27;25695001;-76
2022/01/06 04:01:23;;;;;;;8.85;1.58;;;;;;;2.64;100.00;101827.69;5105192;27;20051;-75
2022/01/06 04:03:51;;;;;;;4.93;1.00;;;;;;;2.74;100.00;101828.72;5104271;27;20756;-74
2022/01/06 04:06:19;;;;;;;5.57;1.60;;;;;;;2.64;100.00;101826.78;5102514;27;20321;-73
2022/01/06 04:08:47;;;;;;;6.53;1.50;;;;;;;2.51;100.00;101816.06;5104218;27;20072;-73
2022/01/06 04:11:15;;;;;;;5.55;1.55;;;;;;;2.39;100.00;101821.13;5104798;27;20489;-73
2022/01/06 04:13:45;;;;;;;4.88;1.40;;;;;;;2.28;100.00;101820.03;5103404;27;20079;-73
2022/01/06 04:16:15;;;;;;;6.18;2.00;;;;;;;2.20;100.00;101815.53;5103245;27;20055;-73
2022/01/06 04:18:43;;;;;;;4.28;1.45;;;;;;;2.23;100.00;101817.31;5101865;27;20247;-74
2022/01/06 04:21:11;;;;;;;5.32;1.67;;;;;;;2.22;100.00;101820.81;5101930;27;20051;-73
2022/01/06 04:23:39;;;;;;;5.72;1.60;;;;;;;2.19;100.00;101823.41;5105840;27;20051;-73
2022/01/06 04:26:08;;;;;;;6.15;1.45;;;;;;;2.07;100.00;101826.69;5106231;27;20040;-74
2022/01/06 04:28:36;;;;;;;7.40;1.70;;;;;;;1.98;100.00;101823.91;5102143;27;20062;-73
2022/01/06 04:31:05;;;;;;;3.90;1.70;;;;;;;1.93;100.00;101826.44;5103573;27;20370;-69
2022/01/06 04:33:37;;;;;;;4.95;1.60;;;;;;;1.89;100.00;101828.97;5101573;27;20051;-69
2022/01/06 04:36:07;;;;;;;5.35;1.98;;;;;;;1.88;100.00;101836.00;5103764;27;20152;-70
2022/01/06 04:39:10;;;;;;;8.13;1.60;;;;;;;1.83;100.00;101835.88;5102070;27;20199;-68
2022/01/06 04:41:41;;;;;;;3.70;1.35;;;;;;;1.72;100.00;101831.25;5104447;27;20044;-70
2022/01/06 04:44:15;;;;;;;5.45;1.67;;;;;;;1.67;100.00;101826.81;5042680;28;20058;-70
2022/01/06 04:46:54;;;;;;;5.57;1.33;;;;;;;1.69;100.00;101834.75;5101353;27;20047;-70
2022/01/06 04:49:29;;;;;;;7.95;1.45;;;;;;;1.72;100.00;101841.78;5103696;27;20150;-70
2022/01/06 04:52:01;;;;;;;8.25;1.65;;;;;;;1.84;100.00;101845.56;5103008;27;20048;-71
2022/01/06 04:57:19;;;;;;;4.15;1.50;;;;;;;2.02;100.00;101838.88;5103961;27;20075;-70
2022/01/06 04:59:59;;;;;;;6.72;1.30;;;;;;;2.11;100.00;101839.06;5087473;27;20256;-70
2022/01/06 05:02:29;;;;;;;8.32;1.63;;;;;;;2.08;100.00;101835.47;5081853;27;20055;-69
2022/01/06 05:04:57;;;;;;;7.05;1.75;;;;;;;2.04;100.00;101845.06;5101980;27;20099;-71
2022/01/06 05:07:25;;;;;;;7.07;1.58;;;;;;;1.98;100.00;101847.59;5090151;27;20090;-70
2022/01/06 05:09:54;;;;;;;3.90;1.70;;;;;;;1.89;100.00;101850.94;5088642;27;20154;-70
2022/01/06 05:12:22;;;;;;;16.80;3.00;;;;;;;1.88;100.00;101854.41;5086294;28;20084;-71
2022/01/06 05:14:50;;;;;;;2.28;1.38;;;;;;;1.90;100.00;101857.09;5090039;28;20043;-70
2022/01/06 05:17:19;;;;;;;5.60;1.83;;;;;;;1.81;100.00;101848.13;5088751;27;20473;-70
2022/01/06 05:19:48;;;;;;;4.30;1.92;;;;;;;1.80;100.00;101856.88;5087756;28;20100;-70
2022/01/06 05:22:16;;;;;;;7.78;2.35;;;;;;;1.77;100.00;101854.22;5089400;27;20046;-70
2022/01/06 05:24:44;;;;;;;8.90;2.70;;;;;;;1.78;100.00;101853.34;5088617;27;20075;-71
2022/01/06 05:27:11;;;;;;;6.18;1.80;;;;;;;1.74;100.00;101862.03;5089632;27;20059;-70
2022/01/06 05:29:40;;;;;;;7.13;1.88;;;;;;;1.74;100.00;101862.03;5088047;27;20170;-70
2022/01/06 05:32:08;;;;;;;9.32;2.10;;;;;;;1.67;100.00;101860.13;5093471;27;20051;-69
2022/01/06 05:34:36;;;;;;;8.75;2.05;;;;;;;1.62;100.00;101859.16;5088062;27;20107;-68
2022/01/06 05:37:06;;;;;;;11.15;2.88;;;;;;;1.62;100.00;101861.78;5090586;28;20247;-68
2022/01/06 05:39:34;;;;;;;7.45;2.20;;;;;;;1.57;100.00;101866.94;5087905;27;20279;-70
2022/01/06 05:42:05;;;;;;;8.80;3.22;;;;;;;1.55;100.00;101865.13;5071186;28;20063;-71
2022/01/06 05:44:59;;;;;;;8.23;2.45;;;;;;;1.45;100.00;101853.53;5088233;28;20403;-70
2022/01/06 05:47:42;;;;;;;6.70;2.38;;;;;;;1.33;100.00;101859.41;5085218;27;20093;-70
2022/01/06 05:53:59;;;;;;;11.07;2.15;;;;;;;1.19;100.00;101868.72;5083771;27;20077;-71
2022/01/06 06:00:26;;;;;;;9.77;2.80;;;;;;;1.07;100.00;101885.09;5085326;27;20302;-71
2022/01/06 06:03:33;;;;;;;6.28;1.75;;;;;;;1.00;100.00;101878.78;5085765;27;20139;-72
2022/01/06 06:09:06;;;;;;;7.13;2.05;;;;;;;0.88;100.00;101887.28;5086473;27;20058;-71
2022/01/06 06:11:57;;;;;;;8.27;2.15;;;;;;;0.85;100.00;101884.59;5073481;27;20100;-72
2022/01/06 06:15:08;;;;;;;5.95;2.20;;;;;;;0.83;100.00;101893.28;5071325;28;20066;-72
2022/01/06 06:18:12;;;;;;;14.30;2.13;;;;;;;0.76;100.00;101899.22;5087584;28;20582;-72
2022/01/06 06:21:42;;;;;;;4.82;1.80;;;;;;;0.70;100.00;101908.75;5085876;27;20117;-71
2022/01/06 06:24:29;;;;;;;6.07;1.88;;;;;;;0.68;100.00;101899.03;5084599;27;20053;-71
2022/01/06 06:27:18;;;;;;;9.63;2.75;;;;;;;0.64;100.00;101905.94;5088314;28;20058;-71
2022/01/06 06:36:52;;;;;;;8.40;2.85;;;;;;;0.50;100.00;101925.72;5019527;28;20128;-70
2022/01/06 06:42:36;;;;;;;8.50;2.70;;;;;;;0.44;100.00;101928.16;5083734;28;20228;-71
2022/01/06 06:51:09;;;;;;;9.57;2.28;;;;;;;0.33;100.00;101938.41;5074444;28;20000;-79
2022/01/06 06:53:37;;;;;;;7.43;2.25;;;;;;;0.30;100.00;101944.44;5086676;27;20061;-81
2022/01/06 06:56:05;;;;;;;12.30;3.03;;;;;;;0.33;100.00;101943.66;5086991;28;20077;-81
2022/01/06 06:58:33;;;;;;;5.00;2.15;;;;;;;0.30;100.00;101946.19;5086464;28;20060;-81
2022/01/06 07:01:01;;;;;;;7.00;2.05;;;;;;;0.23;100.00;101937.25;5089567;28;20039;-79
2022/01/06 07:03:30;;;;;;;4.88;2.33;;;;;;;0.22;100.00;101935.44;5085866;28;20055;-81
2022/01/06 07:24:24;;;;;;;15.45;2.88;;;;;;;0.23;100.00;101947.75;5085338;28;20056;-80
2022/01/06 07:26:52;;;;;;;8.73;2.58;;;;;;;0.23;100.00;101939.00;5087631;28;20092;-80
2022/01/06 07:29:20;;;;;;;5.90;2.72;;;;;;;0.20;100.00;101946.78;5086578;27;20248;-82
2022/01/06 07:31:47;;;;;;;5.38;2.67;;;;;;;0.23;100.00;101950.38;5086097;28;20055;-80
2022/01/06 07:34:15;;;;;;;11.10;3.67;;;;;;;0.14;100.00;101944.88;5086015;28;20144;-80
2022/01/06 07:36:43;;;;;;;13.75;3.15;;;;;;;0.20;100.00;101954.66;5081971;28;20071;-81
2022/01/06 07:39:11;;;;;;;9.50;2.65;;;;;;;0.15;100.00;101954.50;5084716;28;20087;-79
2022/01/06 07:41:41;;;;;;;7.38;3.25;;;;;;;0.14;100.00;101955.38;5082932;28;20048;-81
2022/01/06 07:44:10;;;;;;;9.02;2.67;;;;;;;0.05;100.00;101953.38;5084738;28;20051;-80
2022/01/06 07:46:40;;;;;;;6.15;2.72;;;;;;;0.05;100.00;101953.38;5083364;28;20059;-79
2022/01/06 08:11:43;;;;;;;7.18;3.38;;;;;;;0.21;100.00;101986.19;4959237;28;20058;-74
2022/01/06 08:14:10;;;;;;;9.40;3.17;;;;;;;0.17;100.00;101993.09;4962917;28;20055;-81
2022/01/06 08:17:03;;;;;;;8.90;3.90;;;;;;;0.28;100.00;101995.16;4964304;28;20062;-79
2022/01/06 08:19:31;;;;;;;11.50;5.43;;;;;;;0.31;100.00;101995.22;4962821;28;20719;-80
2022/01/06 08:22:00;;;;;;;14.07;5.13;;;;;;;0.36;100.00;101993.63;4964339;28;20046;-79
2022/01/06 08:24:30;;;;;;;11.90;4.53;;;;;;;0.43;100.00;102000.81;4963139;28;20069;-79
2022/01/06 08:27:01;;;;;;;12.35;4.55;;;;;;;0.54;100.00;102002.00;4965369;28;21510;-79
2022/01/06 08:29:29;;;;;;;14.70;4.82;;;;;;;0.60;100.00;102003.03;4966347;28;20527;-80
2022/01/06 08:32:52;;;;;;;12.70;5.45;;;;;;;0.60;100.00;102003.03;4960259;28;20053;-75
2022/01/06 08:37:10;;;;;;;16.80;4.50;;;;;;;0.68;100.00;102001.50;5012475;28;20179;-75
2022/01/06 08:39:38;;;;;;;12.40;5.13;;;;;;;0.81;100.00;102000.97;5034453;28;20069;-80
2022/01/06 08:42:08;;;;;;;17.70;5.38;;;;;;;0.84;100.00;102006.31;5052098;27;20052;-79
2022/01/06 08:44:39;;;;;;;14.55;6.43;;;;;;;0.95;100.00;102009.22;5088453;27;21223;-80
2022/01/06 08:47:11;;;;;;;21.85;5.65;;;;;;;0.96;100.00;102010.13;5090563;27;20044;-79
2022/01/06 08:49:41;;;;;;;14.98;6.35;;;;;;;1.01;100.00;102000.63;5089307;27;20078;-79
2022/01/06 08:52:10;;;;;;;11.70;5.05;;;;;;;1.08;100.00;102007.81;5090749;28;20062;-79
2022/01/06 08:54:37;;;;;;;13.23;5.40;;;;;;;1.13;100.00;102007.94;5089506;28;20618;-79
2022/01/06 08:57:05;;;;;;;11.18;5.55;;;;;;;1.23;100.00;102007.31;5090449;27;20079;-79
2022/01/06 08:59:35;;;;;;;15.07;6.47;;;;;;;1.33;100.00;102003.16;5087712;27;20054;-78
2022/01/06 09:02:04;;;;;;;17.92;6.15;;;;;;;1.43;100.00;102008.69;5087246;28;20090;-78
2022/01/06 09:04:34;;;;;;;15.90;7.10;;;;;;;1.52;100.00;102005.38;5087536;28;20059;-78
2022/01/06 09:07:03;;;;;;;16.60;6.60;;;;;;;1.66;100.00;102000.44;5088790;27;20051;-78
2022/01/06 09:09:31;;;;;;;16.42;6.57;;;;;;;1.80;100.00;102006.91;5088720;28;20173;-76
2022/01/06 09:11:59;;;;;;;13.65;6.20;;;;;;;1.93;100.00;102002.81;5087371;28;20059;-77
2022/01/06 09:14:29;;;;;;;20.38;6.25;;;;;;;2.05;100.00;102004.81;5089350;28;20063;-77
2022/01/06 09:28:03;;;;;;;17.27;6.53;;;;;;;2.45;100.00;101997.72;5078813;28;20146;-80
2022/01/06 09:30:33;;;;;;;12.05;4.93;;;;;;;2.50;100.00;102001.34;5089810;28;20135;-79
2022/01/06 09:33:01;;;;;;;10.52;5.63;;;;;;;2.57;100.00;102007.63;5086754;28;20093;-78
2022/01/06 09:35:30;;;;;;;14.00;4.80;;;;;;;2.60;100.00;101999.78;5088776;27;20088;-75
2022/01/06 09:37:59;;;;;;;17.85;4.43;;;;;;;2.64;100.00;102006.00;5085870;27;20048;-75
2022/01/06 09:40:27;;;;;;;11.13;5.13;;;;;;;2.69;100.00;102010.53;5086812;27;20316;-74
2022/01/06 09:42:56;;;;;;;12.88;4.85;;;;;;;2.76;100.00;102007.13;5086061;27;20458;-71
2022/01/06 09:45:26;;;;;;;15.23;5.53;;;;;;;2.83;100.00;102018.69;5085940;27;20048;-71
2022/01/06 09:47:56;;;;;;;14.02;5.38;;;;;;;2.86;100.00;102015.19;5089636;28;20055;-70
2022/01/06 09:50:24;;;;;;;12.05;5.60;;;;;;;2.85;100.00;102009.06;5087807;28;20166;-71
2022/01/06 09:52:52;;;;;;;18.27;5.25;;;;;;;2.96;100.00;102019.78;5084249;28;20127;-72
2022/01/06 09:55:21;;;;;;;14.18;4.93;;;;;;;3.08;100.00;102022.66;5086844;27;21533;-71
2022/01/06 09:57:59;;;;;;;12.63;4.85;;;;;;;3.16;100.00;102018.38;5086976;28;20519;-71
2022/01/06 10:00:31;;;;;;;10.45;4.43;;;;;;;3.22;100.00;102014.97;5087286;28;20058;-71
2022/01/06 10:03:03;;;;;;;16.08;4.40;;;;;;;3.33;100.00;102023.94;5089386;27;20176;-71
2022/01/06 10:05:38;;;;;;;11.73;4.20;;;;;;;3.39;100.00;102023.19;5085327;28;20060;-71
2022/01/06 10:08:07;;;;;;;12.18;3.58;;;;;;;3.43;100.00;102019.72;5086518;28;20415;-73
2022/01/06 10:10:35;;;;;;;11.27;3.65;;;;;;;3.45;100.00;102017.97;5087008;27;20083;-74
2022/01/06 10:13:07;;;;;;;10.90;3.55;;;;;;;3.53;100.00;102026.91;5086222;28;20561;-71
2022/01/06 10:15:39;;;;;;;7.13;3.35;;;;;;;3.65;100.00;102017.44;5085392;28;20535;-71
2022/01/06 10:18:11;;;;;;;11.02;3.03;;;;;;;3.77;100.00;102022.00;5085585;28;20044;-71
2022/01/06 10:20:39;;;;;;;9.90;3.08;;;;;;;3.93;100.00;102021.34;5086605;28;20054;-71
2022/01/06 10:23:12;;;;;;;14.35;2.50;;;;;;;4.00;100.00;102022.31;5086251;28;20056;-73
2022/01/06 10:25:46;;;;;;;10.23;3.00;;;;;;;4.01;100.00;102019.69;5090204;28;20090;-71
2022/01/06 10:28:38;;;;;;;11.98;3.63;;;;;;;4.09;100.00;102018.06;5086284;28;20464;-71
2022/01/06 10:31:08;;;;;;;9.48;2.60;;;;;;;4.24;100.00;102019.13;5084146;28;20062;-71
2022/01/06 10:33:39;;;;;;;9.70;2.78;;;;;;;4.28;100.00;102015.66;5088082;28;20127;-72
2022/01/06 10:36:08;;;;;;;8.63;2.45;;;;;;;4.43;100.00;102017.63;5086095;27;20091;-72
2022/01/06 10:38:36;;;;;;;16.63;3.83;;;;;;;4.56;100.00;102013.34;5088731;28;20130;-73
2022/01/06 10:41:12;;;;;;;9.35;2.78;;;;;;;4.76;100.00;102008.28;5084812;28;20130;-73
2022/01/06 10:44:06;;;;;;;7.03;2.50;;;;;;;4.94;100.00;102013.78;5087822;28;20122;-72
2022/01/06 10:47:00;;;;;;;10.30;3.20;;;;;;;5.12;100.00;102006.88;5084764;28;20842;-73
2022/01/06 10:49:31;;;;;;;14.38;2.35;;;;;;;5.17;100.00;102007.78;5085967;28;20354;-74
2022/01/06 10:52:00;;;;;;;5.07;2.38;;;;;;;5.21;100.00;102012.22;5085548;28;20482;-73
2022/01/06 10:54:29;;;;;;;5.07;2.45;;;;;;;5.06;100.00;102010.34;5084161;28;20553;-73
2022/01/06 10:57:02;;;;;;;10.95;2.60;;;;;;;4.97;100.00;102013.81;5087461;27;20356;-76
2022/01/06 10:59:33;;;;;;;8.07;2.22;;;;;;;4.84;100.00;102017.19;5087799;28;20048;-76
2022/01/06 11:02:05;;;;;;;7.72;2.30;;;;;;;4.83;100.00;102018.94;5084954;28;20070;-76
2022/01/06 11:04:33;;;;;;;5.47;1.80;;;;;;;4.79;100.00;102005.69;5086225;28;20094;-76
2022/01/06 11:07:01;;;;;;;8.20;2.30;;;;;;;4.77;100.00;102008.31;5083862;28;20089;-77
2022/01/06 11:09:30;;;;;;;9.23;2.47;;;;;;;4.72;100.00;102014.44;5084926;28;20067;-76
2022/01/06 11:14:45;;;;;;;6.72;2.45;;;;;;;4.57;100.00;102017.78;5084700;28;20364;-76
2022/01/06 11:17:15;;;;;;;9.63;2.20;;;;;;;4.50;100.00;102019.47;5087712;28;20634;-77
2022/01/06 11:19:42;;;;;;;9.65;1.70;;;;;;;4.51;100.00;102020.34;5086914;28;20136;-76
2022/01/06 11:22:13;;;;;;;3.55;1.70;;;;;;;4.44;100.00;102025.56;5086191;28;20087;-77
2022/01/06 11:24:53;;;;;;;5.97;1.90;;;;;;;4.34;100.00;102014.84;5083241;28;20568;-77
2022/01/06 11:27:31;;;;;;;5.13;1.67;;;;;;;4.33;100.00;102016.59;5085081;28;20054;-77
2022/01/06 11:30:09;;;;;;;6.63;1.52;;;;;;;4.26;100.00;102012.13;5085595;28;20043;-76
2022/01/06 11:32:38;;;;;;;9.07;2.58;;;;;;;4.22;100.00;102005.91;5086379;28;20501;-76
2022/01/06 11:35:11;;;;;;;3.33;1.83;;;;;;;4.19;100.00;102003.22;5090197;27;20285;-76
2022/01/06 11:37:41;;;;;;;7.43;2.47;;;;;;;4.22;100.00;102002.38;5084434;28;20794;-77
2022/01/06 11:40:10;;;;;;;4.80;1.88;;;;;;;4.22;100.00;102003.28;5086618;27;20142;-77
2022/01/06 11:42:38;;;;;;;7.00;1.48;;;;;;;4.19;100.00;101999.69;5084217;28;20062;-76
2022/01/06 11:45:08;;;;;;;6.63;2.00;;;;;;;4.19;100.00;102000.59;5084982;28;20079;-77
2022/01/06 11:47:40;;;;;;;10.18;2.83;;;;;;;4.23;100.00;102004.16;5084590;28;20065;-77
2022/01/06 11:50:11;;;;;;;6.65;2.17;;;;;;;4.17;100.00;101997.03;5086267;28;20655;-77
2022/01/06 11:52:50;;;;;;;4.18;1.90;;;;;;;4.21;100.00;101998.84;5082713;27;20052;-77
2022/01/06 11:55:22;;;;;;;7.32;1.92;;;;;;;4.22;100.00;101992.69;5086069;28;20071;-77
2022/01/06 11:57:50;;;;;;;6.88;2.35;;;;;;;4.25;100.00;101997.13;5085377;28;20047;-78
2022/01/06 12:00:21;;;;;;;4.63;2.00;;;;;;;4.31;100.00;101991.94;5086670;28;20614;-78
2022/01/06 12:03:03;;;;;;;8.48;2.30;;;;;;;4.38;100.00;101993.78;5086614;28;20093;-78
2022/01/06 12:05:42;;;;;;;10.00;2.15;;;;;;;4.46;100.00;101988.56;5088354;28;20087;-78
2022/01/06 12:08:10;;;;;;;7.05;2.40;;;;;;;4.48;100.00;101987.72;5086007;28;20048;-79
2022/01/06 12:10:45;;;;;;;6.20;2.15;;;;;;;4.59;100.00;101981.66;5082677;28;20058;-79
2022/01/06 12:13:15;;;;;;;6.43;2.50;;;;;;;4.70;100.00;101972.09;5086765;28;20075;-79
2022/01/06 12:15:48;;;;;;;7.32;2.10;;;;;;;4.83;100.00;101973.97;5083589;28;20048;-78
2022/01/06 12:18:25;;;;;;;7.60;1.80;;;;;;;4.94;100.00;101968.81;5089093;27;20059;-78
2022/01/06 12:20:56;;;;;;;4.53;1.63;;;;;;;5.03;100.00;101957.41;5090377;28;20056;-79
2022/01/06 12:23:25;;;;;;;6.10;1.98;;;;;;;5.15;100.00;101957.50;5090302;27;20055;-75
2022/01/06 12:25:58;;;;;;;4.68;1.80;;;;;;;5.35;100.00;101959.44;5087523;28;20039;-76
2022/01/06 12:28:29;;;;;;;8.45;2.50;;;;;;;5.53;100.00;101950.72;5088286;27;20048;-74
2022/01/06 12:30:59;;;;;;;7.03;2.80;;;;;;;5.85;100.00;101957.97;5090604;27;20315;-76
2022/01/06 12:33:31;;;;;;;9.13;2.60;;;;;;;6.04;100.00;101959.84;5090599;27;20055;-76
2022/01/06 12:36:01;;;;;;;13.77;3.15;;;;;;;6.14;100.00;101960.78;5087216;27;20075;-76
2022/01/06 12:38:32;;;;;;;8.73;3.00;;;;;;;6.14;100.00;101958.16;5091116;27;20131;-76
2022/01/06 12:41:01;;;;;;;8.40;2.63;;;;;;;6.02;100.00;101951.03;5089564;27;20150;-76
2022/01/06 12:43:36;;;;;;;8.95;2.65;;;;;;;5.85;100.00;101945.63;5086941;28;20135;-76
2022/01/06 12:46:07;;;;;;;7.68;3.17;;;;;;;5.66;100.00;101947.28;5088726;28;20065;-75
2022/01/06 12:48:39;;;;;;;10.98;3.05;;;;;;;5.55;100.00;101952.53;5086273;28;20044;-76
2022/01/06 12:51:09;;;;;;;11.93;2.58;;;;;;;5.40;100.00;101948.00;5088590;27;20047;-76
2022/01/06 12:53:42;;;;;;;11.23;2.40;;;;;;;5.37;100.00;101940.03;5083867;28;20055;-74
2022/01/06 12:56:23;;;;;;;14.88;3.00;;;;;;;5.36;100.00;101942.66;5089412;28;20067;-77
2022/01/06 12:58:54;;;;;;;11.20;3.22;;;;;;;5.32;100.00;101936.47;5090851;28;20051;-76
2022/01/06 13:01:22;;;;;;;9.27;3.40;;;;;;;5.30;100.00;101940.00;5087700;28;20537;-75
2022/01/06 13:03:54;;;;;;;16.85;3.53;;;;;;;5.25;100.00;101945.25;5089302;28;20515;-75
2022/01/06 13:06:23;;;;;;;13.32;2.78;;;;;;;5.23;100.00;101931.13;5084850;27;20048;-75
2022/01/06 13:08:55;;;;;;;11.80;2.88;;;;;;;5.19;100.00;101927.56;5087059;28;20495;-76
2022/01/06 13:11:24;;;;;;;11.95;3.53;;;;;;;5.47;100.00;101925.09;5085896;27;20107;-75
2022/01/06 13:13:54;;;;;;;8.02;2.30;;;;;;;5.57;100.00;101921.63;5088027;27;20039;-75
2022/01/06 13:16:24;;;;;;;12.13;3.25;;;;;;;5.58;100.00;101923.41;5090752;27;20048;-75
2022/01/06 13:18:57;;;;;;;14.18;3.85;;;;;;;5.50;100.00;101921.56;5086251;27;20040;-75
2022/01/06 13:21:30;;;;;;;12.88;3.75;;;;;;;5.47;100.00;101919.81;5087126;28;20268;-75
2022/01/06 13:24:09;;;;;;;13.87;3.80;;;;;;;5.22;100.00;101914.34;5088405;28;20056;-77
2022/01/06 13:26:49;;;;;;;10.80;3.70;;;;;;;5.28;100.00;101908.22;5086486;27;20051;-74
2022/01/06 13:29:33;;;;;;;11.52;3.53;;;;;;;5.11;100.00;101908.09;5088199;28;20144;-74
2022/01/06 13:32:07;;;;;;;11.40;3.37;;;;;;;4.98;100.00;101904.44;5094196;27;20054;-74
2022/01/06 13:34:39;;;;;;;11.93;3.58;;;;;;;5.09;100.00;101906.28;5086654;28;20424;-76
2022/01/06 13:37:11;;;;;;;13.15;3.25;;;;;;;5.29;100.00;101906.44;5089876;27;20058;-75
2022/01/06 13:39:45;;;;;;;11.77;2.78;;;;;;;5.37;100.00;101892.38;5086130;27;20957;-73
2022/01/06 13:42:24;;;;;;;;;;;;;;;5.26;100.00;101895.84;5087492;28;20170;-74
2022/01/06 13:44:55;;;;;;;13.20;2.53;;;;;;;5.21;100.00;101898.44;5087030;28;19919;-73
2022/01/06 13:47:33;;;;;;;7.68;2.20;;;;;;;5.21;100.00;101906.38;5089744;28;20468;-74
2022/01/06 13:52:54;;;;;;;8.85;2.58;;;;;;;5.11;100.00;101896.59;5087073;28;20134;-74
2022/01/06 13:55:22;;;;;;;8.07;2.35;;;;;;;5.08;100.00;101891.31;5088759;28;20131;-73
2022/01/06 13:57:50;;;;;;;11.55;2.45;;;;;;;4.98;100.00;101888.59;5088958;27;20058;-75
2022/01/06 14:00:19;;;;;;;15.13;2.95;;;;;;;4.89;100.00;101891.16;5087232;28;20135;-73
2022/01/06 14:02:48;;;;;;;10.32;3.00;;;;;;;4.82;100.00;101889.34;5088845;27;20051;-73
2022/01/06 14:05:22;;;;;;;11.55;2.60;;;;;;;4.74;100.00;101886.63;5087070;27;20052;-73
2022/01/06 14:07:50;;;;;;;8.25;3.13;;;;;;;4.67;100.00;101883.03;5087335;28;20064;-73
2022/01/06 14:10:18;;;;;;;7.68;3.10;;;;;;;4.62;100.00;101879.47;5088481;28;20471;-73
2022/01/06 14:12:46;;;;;;;15.85;3.35;;;;;;;4.58;100.00;101879.41;5086256;27;21610;-73
2022/01/06 14:15:14;;;;;;;12.38;3.03;;;;;;;4.56;100.00;101878.53;5087753;28;20135;-73
2022/01/06 14:17:42;;;;;;;13.18;3.08;;;;;;;4.52;100.00;101868.81;5083947;27;20059;-73
2022/01/06 14:20:10;;;;;;;12.57;3.13;;;;;;;4.53;100.00;101873.19;5087965;28;20040;-73
2022/01/06 14:22:40;;;;;;;10.68;2.75;;;;;;;4.48;100.00;101874.06;5085638;28;20051;-73
2022/01/06 14:25:08;;;;;;;11.23;3.03;;;;;;;4.48;100.00;101866.13;5089299;28;20047;-73
2022/01/06 14:27:39;;;;;;;13.13;3.33;;;;;;;4.48;100.00;101871.41;5085700;27;20060;-73